SWA2911 KLAX-PHNL
Flight info
| Callsign | SWA2911 |
|---|---|
| Flight time | 5h 44m |
| Altitude | 36000 |
| Route | KYLOW1 DINTY R576 DENNS KAENA4 |
| Aircraft | B38M/M-SDE1FGHILORVWXY/HB1 |
Departure
| Time | 2026-05-04 17:52 |
|---|---|
| Airport | Los Angeles International Airport (KLAX) |
Arrival
| Time | 2026-05-04 23:37 |
|---|---|
| Airport | Daniel K. Inouye International Airport (PHNL) |
| Time | Latitude | Longitude | Altitude | Speed | Heading |
|---|---|---|---|---|---|
| 2026-05-04 17:07 | 33.94792 | -118.40123 | 95 ft | 0 kts | 185° |
| 2026-05-04 17:45 | 33.94783 | -118.40124 | 98 ft | 2 kts | 185° |
| 2026-05-04 17:46 | 33.94794 | -118.40123 | 95 ft | 2 kts | 185° |
| 2026-05-04 17:46 | 33.94811 | -118.40122 | 96 ft | 2 kts | 158° |
| 2026-05-04 17:46 | 33.94822 | -118.40135 | 96 ft | 2 kts | 100° |
| 2026-05-04 17:46 | 33.94823 | -118.40134 | 97 ft | 0 kts | 94° |
| 2026-05-04 17:47 | 33.94822 | -118.40134 | 97 ft | 0 kts | 94° |
| 2026-05-04 17:47 | 33.94822 | -118.40130 | 97 ft | 3 kts | 94° |
| 2026-05-04 17:47 | 33.94821 | -118.40104 | 97 ft | 5 kts | 94° |
| 2026-05-04 17:47 | 33.94820 | -118.40101 | 97 ft | 5 kts | 94° |
| 2026-05-04 17:48 | 33.94819 | -118.40086 | 95 ft | 6 kts | 94° |
| 2026-05-04 17:48 | 33.94819 | -118.40079 | 95 ft | 1 kts | 94° |
| 2026-05-04 17:48 | 33.94818 | -118.40073 | 95 ft | 1 kts | 94° |
| 2026-05-04 17:49 | 33.94818 | -118.40065 | 95 ft | 0 kts | 95° |
| 2026-05-04 17:49 | 33.94823 | -118.40059 | 95 ft | 3 kts | 38° |
| 2026-05-04 17:49 | 33.94875 | -118.40072 | 97 ft | 11 kts | 350° |
| 2026-05-04 17:50 | 33.94924 | -118.40037 | 95 ft | 6 kts | 75° |
| 2026-05-04 17:50 | 33.94931 | -118.39979 | 95 ft | 8 kts | 82° |
| 2026-05-04 17:50 | 33.94942 | -118.39950 | 95 ft | 0 kts | 60° |
| 2026-05-04 17:51 | 33.94961 | -118.39930 | 96 ft | 11 kts | 28° |
| 2026-05-04 17:51 | 33.95031 | -118.40015 | 96 ft | 23 kts | 277° |
| 2026-05-04 17:51 | 33.95014 | -118.40239 | 102 ft | 46 kts | 263° |
| 2026-05-04 17:52 | 33.94945 | -118.40907 | 101 ft | 114 kts | 263° |
| 2026-05-04 17:52 | 33.94819 | -118.42076 | 198 ft | 159 kts | 262° |
| 2026-05-04 17:52 | 33.94651 | -118.43525 | 354 ft | 191 kts | 262° |
| 2026-05-04 17:52 | 33.94467 | -118.45191 | 909 ft | 205 kts | 261° |
| 2026-05-04 17:53 | 33.94037 | -118.46758 | 1813 ft | 196 kts | 235° |
| 2026-05-04 17:53 | 33.92931 | -118.47838 | 2131 ft | 218 kts | 206° |
| 2026-05-04 17:53 | 33.91473 | -118.48519 | 2599 ft | 238 kts | 205° |
| 2026-05-04 17:53 | 33.89881 | -118.49288 | 3164 ft | 255 kts | 205° |
| 2026-05-04 17:54 | 33.88224 | -118.50084 | 4038 ft | 256 kts | 205° |
| 2026-05-04 17:54 | 33.86557 | -118.50882 | 4895 ft | 261 kts | 204° |
| 2026-05-04 17:54 | 33.84870 | -118.51717 | 5697 ft | 263 kts | 211° |
| 2026-05-04 17:54 | 33.83517 | -118.53139 | 6504 ft | 258 kts | 239° |
| 2026-05-04 17:55 | 33.82740 | -118.55092 | 7223 ft | 262 kts | 249° |
| 2026-05-04 17:55 | 33.82060 | -118.57134 | 8024 ft | 264 kts | 249° |
| 2026-05-04 17:55 | 33.81390 | -118.59200 | 8822 ft | 266 kts | 250° |
| 2026-05-04 17:55 | 33.80721 | -118.61291 | 9640 ft | 268 kts | 250° |
| 2026-05-04 17:56 | 33.80065 | -118.63369 | 10319 ft | 274 kts | 250° |
| 2026-05-04 17:56 | 33.79373 | -118.65576 | 10606 ft | 293 kts | 250° |
| 2026-05-04 17:56 | 33.78631 | -118.67954 | 10846 ft | 313 kts | 250° |
| 2026-05-04 17:56 | 33.77939 | -118.70494 | 11143 ft | 328 kts | 260° |
| 2026-05-04 17:57 | 33.77999 | -118.73238 | 11643 ft | 334 kts | 281° |
| 2026-05-04 17:57 | 33.78910 | -118.75805 | 11827 ft | 338 kts | 302° |
| 2026-05-04 17:57 | 33.80503 | -118.77911 | 11972 ft | 343 kts | 311° |
| 2026-05-04 17:57 | 33.82175 | -118.79964 | 11987 ft | 343 kts | 310° |
| 2026-05-04 17:58 | 33.83841 | -118.82017 | 11998 ft | 343 kts | 311° |
| 2026-05-04 17:58 | 33.85486 | -118.84045 | 12000 ft | 343 kts | 311° |
| 2026-05-04 17:58 | 33.87157 | -118.86103 | 12001 ft | 343 kts | 311° |
| 2026-05-04 17:58 | 33.88824 | -118.88158 | 12002 ft | 343 kts | 311° |
| 2026-05-04 17:59 | 33.90490 | -118.90214 | 12006 ft | 344 kts | 311° |
| 2026-05-04 17:59 | 33.92152 | -118.92265 | 12005 ft | 343 kts | 311° |
| 2026-05-04 17:59 | 33.95484 | -118.96382 | 12012 ft | 343 kts | 311° |
| 2026-05-04 18:00 | 33.97131 | -118.98418 | 12007 ft | 344 kts | 311° |
| 2026-05-04 18:00 | 33.98807 | -119.00493 | 12542 ft | 345 kts | 310° |
| 2026-05-04 18:00 | 34.00486 | -119.02571 | 13209 ft | 350 kts | 310° |
| 2026-05-04 18:00 | 34.02192 | -119.04685 | 13893 ft | 353 kts | 310° |
| 2026-05-04 18:01 | 34.03918 | -119.06826 | 14574 ft | 358 kts | 310° |
| 2026-05-04 18:01 | 34.05659 | -119.08983 | 15379 ft | 360 kts | 310° |
| 2026-05-04 18:01 | 34.07415 | -119.11163 | 16046 ft | 365 kts | 309° |
| 2026-05-04 18:02 | 34.10957 | -119.15565 | 17239 ft | 369 kts | 308° |
| 2026-05-04 18:02 | 34.12733 | -119.17773 | 17805 ft | 372 kts | 308° |
| 2026-05-04 18:02 | 34.14542 | -119.20025 | 18376 ft | 375 kts | 308° |
| 2026-05-04 18:02 | 34.16366 | -119.22295 | 18862 ft | 378 kts | 307° |
| 2026-05-04 18:03 | 34.18201 | -119.24581 | 19371 ft | 380 kts | 307° |
| 2026-05-04 18:03 | 34.20045 | -119.26880 | 19900 ft | 382 kts | 307° |
| 2026-05-04 18:03 | 34.21896 | -119.29190 | 20413 ft | 384 kts | 306° |
| 2026-05-04 18:03 | 34.23754 | -119.31509 | 20890 ft | 386 kts | 306° |
| 2026-05-04 18:04 | 34.25629 | -119.33852 | 21362 ft | 388 kts | 306° |
| 2026-05-04 18:04 | 34.27503 | -119.36196 | 21847 ft | 390 kts | 305° |
| 2026-05-04 18:04 | 34.31293 | -119.40938 | 22787 ft | 394 kts | 304° |
| 2026-05-04 18:05 | 34.33173 | -119.43293 | 23243 ft | 396 kts | 304° |
| 2026-05-04 18:05 | 34.35094 | -119.45701 | 23681 ft | 398 kts | 304° |
| 2026-05-04 18:05 | 34.37022 | -119.48118 | 24041 ft | 400 kts | 303° |
| 2026-05-04 18:05 | 34.38847 | -119.50640 | 24350 ft | 391 kts | 293° |
| 2026-05-04 18:06 | 34.40360 | -119.56646 | 24796 ft | 372 kts | 265° |
| 2026-05-04 18:06 | 34.40375 | -119.59770 | 25097 ft | 373 kts | 263° |
| 2026-05-04 18:06 | 34.40295 | -119.62899 | 25447 ft | 374 kts | 262° |
| 2026-05-04 18:07 | 34.40151 | -119.66017 | 25790 ft | 375 kts | 261° |
| 2026-05-04 18:07 | 34.39969 | -119.69178 | 26133 ft | 376 kts | 260° |
| 2026-05-04 18:07 | 34.39769 | -119.72341 | 26475 ft | 378 kts | 259° |
| 2026-05-04 18:07 | 34.39555 | -119.75518 | 26824 ft | 379 kts | 259° |
| 2026-05-04 18:08 | 34.39334 | -119.78708 | 27152 ft | 381 kts | 259° |
| 2026-05-04 18:08 | 34.39108 | -119.81909 | 27486 ft | 382 kts | 259° |
| 2026-05-04 18:08 | 34.38880 | -119.85124 | 27800 ft | 385 kts | 258° |
| 2026-05-04 18:08 | 34.38648 | -119.88367 | 28077 ft | 387 kts | 258° |
| 2026-05-04 18:09 | 34.38185 | -119.94822 | 28699 ft | 390 kts | 258° |
| 2026-05-04 18:09 | 34.37710 | -120.01386 | 29314 ft | 393 kts | 258° |
| 2026-05-04 18:10 | 34.37470 | -120.04677 | 29699 ft | 392 kts | 258° |
| 2026-05-04 18:10 | 34.37231 | -120.07952 | 30168 ft | 390 kts | 257° |
| 2026-05-04 18:10 | 34.36993 | -120.11207 | 30543 ft | 388 kts | 257° |
| 2026-05-04 18:10 | 34.36755 | -120.14454 | 30885 ft | 387 kts | 258° |
| 2026-05-04 18:11 | 34.36518 | -120.17661 | 31173 ft | 387 kts | 258° |
| 2026-05-04 18:11 | 34.36279 | -120.20891 | 31472 ft | 387 kts | 258° |
| 2026-05-04 18:11 | 34.36038 | -120.24133 | 31770 ft | 386 kts | 258° |
| 2026-05-04 18:11 | 34.35796 | -120.27367 | 32090 ft | 386 kts | 258° |
| 2026-05-04 18:12 | 34.35554 | -120.30597 | 32374 ft | 385 kts | 258° |
| 2026-05-04 18:12 | 34.35311 | -120.33828 | 32655 ft | 385 kts | 258° |
| 2026-05-04 18:12 | 34.35068 | -120.37053 | 32937 ft | 385 kts | 258° |
| 2026-05-04 18:12 | 34.34825 | -120.40274 | 33245 ft | 384 kts | 258° |
| 2026-05-04 18:13 | 34.34581 | -120.43493 | 33413 ft | 387 kts | 258° |
| 2026-05-04 18:13 | 34.34095 | -120.46658 | 33618 ft | 378 kts | 245° |
| 2026-05-04 18:13 | 34.31995 | -120.52384 | 34037 ft | 377 kts | 243° |
| 2026-05-04 18:14 | 34.30896 | -120.55265 | 34262 ft | 377 kts | 242° |
| 2026-05-04 18:14 | 34.29782 | -120.58138 | 34446 ft | 378 kts | 242° |
| 2026-05-04 18:14 | 34.28655 | -120.61014 | 34636 ft | 378 kts | 242° |
| 2026-05-04 18:15 | 34.26385 | -120.66761 | 34990 ft | 380 kts | 242° |
| 2026-05-04 18:15 | 34.24114 | -120.72492 | 35316 ft | 381 kts | 242° |
| 2026-05-04 18:15 | 34.22967 | -120.75382 | 35479 ft | 382 kts | 242° |
| 2026-05-04 18:16 | 34.21824 | -120.78258 | 35644 ft | 382 kts | 242° |
| 2026-05-04 18:16 | 34.20672 | -120.81157 | 35794 ft | 383 kts | 242° |
| 2026-05-04 18:16 | 34.19521 | -120.84049 | 35948 ft | 383 kts | 242° |
| 2026-05-04 18:17 | 34.17206 | -120.89859 | 36088 ft | 384 kts | 242° |
| 2026-05-04 18:17 | 34.16048 | -120.92761 | 36081 ft | 383 kts | 242° |
| 2026-05-04 18:18 | 34.12581 | -121.01435 | 36103 ft | 387 kts | 242° |
| 2026-05-04 18:18 | 34.10247 | -121.07261 | 36092 ft | 386 kts | 242° |
| 2026-05-04 18:19 | 34.06729 | -121.16026 | 36089 ft | 387 kts | 242° |
| 2026-05-04 18:19 | 34.04384 | -121.21854 | 36089 ft | 386 kts | 242° |
| 2026-05-04 18:20 | 34.02053 | -121.27639 | 36093 ft | 387 kts | 242° |
| 2026-05-04 18:20 | 33.99695 | -121.33481 | 36092 ft | 388 kts | 242° |
| 2026-05-04 18:21 | 33.97333 | -121.39323 | 36091 ft | 388 kts | 242° |
| 2026-05-04 18:21 | 33.94966 | -121.45166 | 36091 ft | 388 kts | 242° |
| 2026-05-04 18:22 | 33.92616 | -121.50957 | 36093 ft | 388 kts | 242° |
| 2026-05-04 18:22 | 33.90245 | -121.56792 | 36100 ft | 388 kts | 242° |
| 2026-05-04 18:23 | 33.87877 | -121.62608 | 36097 ft | 388 kts | 242° |
| 2026-05-04 18:23 | 33.85502 | -121.68430 | 36095 ft | 388 kts | 242° |
| 2026-05-04 18:24 | 33.83141 | -121.74211 | 36096 ft | 388 kts | 242° |
| 2026-05-04 18:24 | 33.80761 | -121.80025 | 36104 ft | 388 kts | 242° |
| 2026-05-04 18:25 | 33.78385 | -121.85821 | 36092 ft | 386 kts | 241° |
| 2026-05-04 18:25 | 33.76009 | -121.91608 | 36094 ft | 386 kts | 241° |
| 2026-05-04 18:26 | 33.73628 | -121.97398 | 36101 ft | 386 kts | 241° |
| 2026-05-04 18:26 | 33.71260 | -122.03144 | 36100 ft | 386 kts | 241° |
| 2026-05-04 18:27 | 33.68872 | -122.08929 | 36113 ft | 386 kts | 241° |
| 2026-05-04 18:27 | 33.66495 | -122.14681 | 36062 ft | 385 kts | 241° |
| 2026-05-04 18:28 | 33.64123 | -122.20409 | 36097 ft | 387 kts | 241° |
| 2026-05-04 18:28 | 33.61725 | -122.26190 | 36104 ft | 387 kts | 241° |
| 2026-05-04 18:29 | 33.59327 | -122.31962 | 36098 ft | 387 kts | 241° |
| 2026-05-04 18:29 | 33.56928 | -122.37725 | 36108 ft | 386 kts | 241° |
| 2026-05-04 18:30 | 33.53357 | -122.46293 | 36107 ft | 385 kts | 240° |
| 2026-05-04 18:31 | 33.50962 | -122.52028 | 36105 ft | 385 kts | 240° |
| 2026-05-04 18:31 | 33.48583 | -122.57779 | 36098 ft | 386 kts | 245° |
| 2026-05-04 18:32 | 33.47169 | -122.64025 | 36097 ft | 391 kts | 251° |
| 2026-05-04 18:32 | 33.45856 | -122.70275 | 36109 ft | 391 kts | 251° |
| 2026-05-04 18:33 | 33.44549 | -122.76592 | 36107 ft | 391 kts | 251° |
| 2026-05-04 18:33 | 33.43243 | -122.82906 | 36106 ft | 391 kts | 251° |
| 2026-05-04 18:34 | 33.41935 | -122.89216 | 36118 ft | 391 kts | 251° |
| 2026-05-04 18:34 | 33.40631 | -122.95485 | 36111 ft | 391 kts | 251° |
| 2026-05-04 18:35 | 33.39316 | -123.01790 | 36109 ft | 391 kts | 251° |
| 2026-05-04 18:35 | 33.37997 | -123.08099 | 36108 ft | 391 kts | 251° |
| 2026-05-04 18:36 | 33.36674 | -123.14408 | 36111 ft | 391 kts | 251° |
| 2026-05-04 18:36 | 33.35348 | -123.20720 | 36137 ft | 392 kts | 251° |
| 2026-05-04 18:37 | 33.34026 | -123.26992 | 36114 ft | 393 kts | 251° |
| 2026-05-04 18:37 | 33.32686 | -123.33328 | 36110 ft | 393 kts | 251° |
| 2026-05-04 18:38 | 33.31344 | -123.39661 | 36114 ft | 393 kts | 251° |
| 2026-05-04 18:38 | 33.29999 | -123.45991 | 36114 ft | 393 kts | 251° |
| 2026-05-04 18:39 | 33.28659 | -123.52280 | 36113 ft | 393 kts | 251° |
| 2026-05-04 18:39 | 33.27310 | -123.58594 | 36112 ft | 393 kts | 251° |
| 2026-05-04 18:40 | 33.25956 | -123.64916 | 36111 ft | 393 kts | 251° |
| 2026-05-04 18:40 | 33.24596 | -123.71246 | 36120 ft | 394 kts | 251° |
| 2026-05-04 18:41 | 33.23240 | -123.77541 | 36115 ft | 394 kts | 251° |
| 2026-05-04 18:41 | 33.21874 | -123.83869 | 36118 ft | 394 kts | 251° |
| 2026-05-04 18:42 | 33.20500 | -123.90213 | 36118 ft | 395 kts | 251° |
| 2026-05-04 18:42 | 33.19124 | -123.96552 | 36129 ft | 395 kts | 252° |
| 2026-05-04 18:43 | 33.17748 | -124.02874 | 36119 ft | 397 kts | 252° |
| 2026-05-04 18:43 | 33.16358 | -124.09246 | 36115 ft | 397 kts | 252° |
| 2026-05-04 18:44 | 33.14967 | -124.15602 | 36116 ft | 397 kts | 252° |
| 2026-05-04 18:44 | 33.13570 | -124.21968 | 36119 ft | 397 kts | 252° |
| 2026-05-04 18:45 | 33.12164 | -124.28361 | 36118 ft | 399 kts | 252° |
| 2026-05-04 18:45 | 33.10760 | -124.34728 | 36116 ft | 400 kts | 252° |
| 2026-05-04 18:46 | 33.10138 | -124.37545 | 36118 ft | 400 kts | 252° |
| 2026-05-04 18:46 | 33.09781 | -124.39159 | 36118 ft | 400 kts | 252° |
| 2026-05-04 18:47 | 33.08817 | -124.43520 | 36115 ft | 400 kts | 252° |
| 2026-05-04 18:47 | 33.07406 | -124.49885 | 36114 ft | 400 kts | 252° |
| 2026-05-04 18:48 | 33.05969 | -124.56312 | 36118 ft | 402 kts | 252° |
| 2026-05-04 18:48 | 33.04528 | -124.62754 | 36115 ft | 402 kts | 252° |
| 2026-05-04 18:49 | 33.03085 | -124.69190 | 36119 ft | 402 kts | 252° |
| 2026-05-04 18:49 | 33.01653 | -124.75565 | 36118 ft | 403 kts | 252° |
| 2026-05-04 18:50 | 33.00192 | -124.82046 | 36120 ft | 407 kts | 252° |
| 2026-05-04 18:50 | 32.98724 | -124.88543 | 36118 ft | 406 kts | 252° |
| 2026-05-04 18:51 | 32.97252 | -124.95039 | 36121 ft | 406 kts | 252° |
| 2026-05-04 18:51 | 32.95791 | -125.01475 | 36121 ft | 407 kts | 253° |
| 2026-05-04 18:52 | 32.94303 | -125.08006 | 36123 ft | 410 kts | 253° |
| 2026-05-04 18:52 | 32.92807 | -125.14559 | 36118 ft | 410 kts | 253° |
| 2026-05-04 18:53 | 32.91309 | -125.21102 | 36121 ft | 410 kts | 253° |
| 2026-05-04 18:53 | 32.89812 | -125.27627 | 36114 ft | 411 kts | 253° |
| 2026-05-04 18:54 | 32.88309 | -125.34155 | 36123 ft | 412 kts | 253° |
| 2026-05-04 18:54 | 32.86794 | -125.40722 | 36123 ft | 412 kts | 253° |
| 2026-05-04 18:55 | 32.85276 | -125.47285 | 36123 ft | 412 kts | 253° |
| 2026-05-04 18:55 | 32.82988 | -125.57146 | 36127 ft | 415 kts | 253° |
| 2026-05-04 18:56 | 32.81458 | -125.63715 | 36123 ft | 415 kts | 253° |
| 2026-05-04 18:56 | 32.79916 | -125.70322 | 36123 ft | 415 kts | 253° |
| 2026-05-04 18:57 | 32.78369 | -125.76933 | 36122 ft | 415 kts | 253° |
| 2026-05-04 18:57 | 32.76814 | -125.83559 | 36127 ft | 417 kts | 253° |
| 2026-05-04 18:58 | 32.75255 | -125.90186 | 36126 ft | 417 kts | 253° |
| 2026-05-04 18:58 | 32.73701 | -125.96775 | 36126 ft | 417 kts | 253° |
| 2026-05-04 18:59 | 32.72136 | -126.03391 | 36128 ft | 417 kts | 253° |
| 2026-05-04 18:59 | 32.70564 | -126.10023 | 36126 ft | 417 kts | 253° |
| 2026-05-04 19:00 | 32.68992 | -126.16637 | 36127 ft | 417 kts | 253° |
| 2026-05-04 19:00 | 32.67414 | -126.23258 | 36128 ft | 417 kts | 253° |
| 2026-05-04 19:01 | 32.65839 | -126.29852 | 36125 ft | 418 kts | 254° |
| 2026-05-04 19:01 | 32.64248 | -126.36495 | 36127 ft | 419 kts | 253° |
| 2026-05-04 19:02 | 32.62656 | -126.43125 | 36127 ft | 419 kts | 253° |
| 2026-05-04 19:02 | 32.61057 | -126.49768 | 36127 ft | 419 kts | 253° |
| 2026-05-04 19:03 | 32.59460 | -126.56386 | 36128 ft | 422 kts | 254° |
| 2026-05-04 19:03 | 32.57838 | -126.63087 | 36124 ft | 423 kts | 254° |
| 2026-05-04 19:04 | 32.56216 | -126.69776 | 36130 ft | 423 kts | 254° |
| 2026-05-04 19:04 | 32.54591 | -126.76458 | 36124 ft | 423 kts | 254° |
| 2026-05-04 19:05 | 32.52964 | -126.83130 | 36132 ft | 425 kts | 254° |
| 2026-05-04 19:05 | 32.51320 | -126.89857 | 36130 ft | 425 kts | 254° |
| 2026-05-04 19:06 | 32.49672 | -126.96580 | 36129 ft | 425 kts | 254° |
| 2026-05-04 19:06 | 32.48024 | -127.03290 | 36125 ft | 426 kts | 255° |
| 2026-05-04 19:07 | 32.46375 | -127.09983 | 36128 ft | 427 kts | 255° |
| 2026-05-04 19:07 | 32.44711 | -127.16725 | 36130 ft | 426 kts | 255° |
| 2026-05-04 19:08 | 32.43042 | -127.23465 | 36133 ft | 427 kts | 255° |
| 2026-05-04 19:08 | 32.41369 | -127.30206 | 36134 ft | 429 kts | 255° |
| 2026-05-04 19:09 | 32.39696 | -127.36931 | 36138 ft | 429 kts | 255° |
| 2026-05-04 19:09 | 32.38009 | -127.43697 | 36140 ft | 429 kts | 255° |
| 2026-05-04 19:10 | 32.36316 | -127.50467 | 36125 ft | 429 kts | 255° |
| 2026-05-04 19:10 | 32.34622 | -127.57226 | 36135 ft | 430 kts | 255° |
| 2026-05-04 19:11 | 32.32917 | -127.64008 | 36136 ft | 430 kts | 255° |
| 2026-05-04 19:11 | 32.31221 | -127.70741 | 36133 ft | 430 kts | 255° |
| 2026-05-04 19:12 | 32.28652 | -127.80909 | 36139 ft | 431 kts | 256° |
| 2026-05-04 19:13 | 32.26937 | -127.87674 | 36147 ft | 432 kts | 256° |
| 2026-05-04 19:13 | 32.25204 | -127.94495 | 36135 ft | 434 kts | 256° |
| 2026-05-04 19:14 | 32.23474 | -128.01285 | 36142 ft | 434 kts | 256° |
| 2026-05-04 19:14 | 32.21730 | -128.08111 | 36138 ft | 434 kts | 256° |
| 2026-05-04 19:15 | 32.19991 | -128.14903 | 36134 ft | 434 kts | 256° |
| 2026-05-04 19:15 | 32.18239 | -128.21733 | 36122 ft | 434 kts | 256° |
| 2026-05-04 19:16 | 32.16494 | -128.28513 | 36140 ft | 435 kts | 256° |
| 2026-05-04 19:16 | 32.14737 | -128.35326 | 36140 ft | 434 kts | 256° |
| 2026-05-04 19:17 | 32.12976 | -128.42133 | 36142 ft | 434 kts | 256° |
| 2026-05-04 19:17 | 32.11209 | -128.48951 | 36141 ft | 434 kts | 256° |
| 2026-05-04 19:18 | 32.09453 | -128.55713 | 36141 ft | 434 kts | 256° |
| 2026-05-04 19:18 | 32.07678 | -128.62526 | 36143 ft | 434 kts | 256° |
| 2026-05-04 19:19 | 32.05905 | -128.69317 | 36133 ft | 434 kts | 257° |
| 2026-05-04 19:19 | 32.04126 | -128.76114 | 36143 ft | 434 kts | 256° |
| 2026-05-04 19:20 | 32.02342 | -128.82913 | 36143 ft | 434 kts | 256° |
| 2026-05-04 19:20 | 32.00568 | -128.89658 | 36113 ft | 434 kts | 257° |
| 2026-05-04 19:21 | 31.98777 | -128.96450 | 36133 ft | 434 kts | 257° |
| 2026-05-04 19:21 | 31.96992 | -129.03204 | 36142 ft | 434 kts | 257° |
| 2026-05-04 19:22 | 31.95197 | -129.09982 | 36139 ft | 434 kts | 257° |
| 2026-05-04 19:22 | 31.93409 | -129.16716 | 36129 ft | 433 kts | 257° |
| 2026-05-04 19:23 | 31.91608 | -129.23481 | 36149 ft | 433 kts | 257° |
| 2026-05-04 19:23 | 31.89808 | -129.30228 | 36150 ft | 433 kts | 257° |
| 2026-05-04 19:24 | 31.88014 | -129.36934 | 36129 ft | 433 kts | 258° |
| 2026-05-04 19:24 | 31.86219 | -129.43632 | 36152 ft | 432 kts | 258° |
| 2026-05-04 19:25 | 31.84410 | -129.50363 | 36155 ft | 432 kts | 257° |
| 2026-05-04 19:25 | 31.82601 | -129.57080 | 36156 ft | 432 kts | 257° |
| 2026-05-04 19:26 | 31.80788 | -129.63796 | 36152 ft | 431 kts | 258° |
| 2026-05-04 19:26 | 31.78974 | -129.70502 | 36156 ft | 430 kts | 258° |
| 2026-05-04 19:27 | 31.77168 | -129.77159 | 36159 ft | 430 kts | 258° |
| 2026-05-04 19:27 | 31.75351 | -129.83844 | 36145 ft | 430 kts | 258° |
| 2026-05-04 19:28 | 31.73531 | -129.90524 | 36155 ft | 429 kts | 258° |
| 2026-05-04 19:28 | 31.71712 | -129.97183 | 36165 ft | 429 kts | 258° |
| 2026-05-04 19:29 | 31.69899 | -130.03807 | 36139 ft | 429 kts | 258° |
| 2026-05-04 19:29 | 31.68082 | -130.10428 | 36165 ft | 429 kts | 258° |
| 2026-05-04 19:30 | 31.66248 | -130.17100 | 36169 ft | 429 kts | 258° |
| 2026-05-04 19:30 | 31.64409 | -130.23771 | 36170 ft | 429 kts | 258° |
| 2026-05-04 19:31 | 31.62581 | -130.30389 | 36172 ft | 429 kts | 259° |
| 2026-05-04 19:31 | 31.60744 | -130.37024 | 36167 ft | 428 kts | 259° |
| 2026-05-04 19:32 | 31.58901 | -130.43667 | 36174 ft | 429 kts | 259° |
| 2026-05-04 19:32 | 31.57054 | -130.50310 | 36153 ft | 427 kts | 259° |
| 2026-05-04 19:33 | 31.55229 | -130.56856 | 36167 ft | 426 kts | 259° |
| 2026-05-04 19:33 | 31.53386 | -130.63451 | 36172 ft | 426 kts | 259° |
| 2026-05-04 19:34 | 31.51544 | -130.70030 | 36175 ft | 426 kts | 259° |
| 2026-05-04 19:34 | 31.49695 | -130.76622 | 36179 ft | 426 kts | 259° |
| 2026-05-04 19:35 | 31.47843 | -130.83207 | 36186 ft | 426 kts | 259° |
| 2026-05-04 19:35 | 31.45999 | -130.89751 | 36179 ft | 426 kts | 259° |
| 2026-05-04 19:36 | 31.44149 | -130.96299 | 36178 ft | 422 kts | 260° |
| 2026-05-04 19:36 | 31.42302 | -131.02821 | 36180 ft | 422 kts | 259° |
| 2026-05-04 19:37 | 31.40451 | -131.09345 | 36181 ft | 422 kts | 259° |
| 2026-05-04 19:37 | 31.38598 | -131.15865 | 36171 ft | 421 kts | 260° |
| 2026-05-04 19:38 | 31.36767 | -131.22288 | 36182 ft | 420 kts | 260° |
| 2026-05-04 19:38 | 31.34915 | -131.28776 | 36187 ft | 420 kts | 260° |
| 2026-05-04 19:39 | 31.33061 | -131.35255 | 36147 ft | 420 kts | 260° |
| 2026-05-04 19:39 | 31.31211 | -131.41708 | 36189 ft | 417 kts | 260° |
| 2026-05-04 19:40 | 31.29378 | -131.48088 | 36192 ft | 417 kts | 260° |
| 2026-05-04 19:40 | 31.27535 | -131.54496 | 36192 ft | 417 kts | 260° |
| 2026-05-04 19:41 | 31.25684 | -131.60912 | 36182 ft | 415 kts | 260° |
| 2026-05-04 19:41 | 31.24150 | -131.66225 | 36192 ft | 415 kts | 260° |
| 2026-05-04 19:42 | 31.22302 | -131.72610 | 36190 ft | 415 kts | 260° |
| 2026-05-04 19:42 | 31.20154 | -131.80014 | 36178 ft | 415 kts | 260° |
| 2026-05-04 19:43 | 31.18297 | -131.86400 | 36199 ft | 415 kts | 260° |
| 2026-05-04 19:43 | 31.16752 | -131.91706 | 36200 ft | 415 kts | 260° |
| 2026-05-04 19:44 | 31.14891 | -131.98085 | 36203 ft | 415 kts | 260° |
| 2026-05-04 19:44 | 31.12729 | -132.05476 | 36199 ft | 415 kts | 259° |
| 2026-05-04 19:45 | 31.11165 | -132.10814 | 36208 ft | 416 kts | 260° |
| 2026-05-04 19:45 | 31.09282 | -132.17159 | 36206 ft | 416 kts | 259° |
| 2026-05-04 19:46 | 31.07395 | -132.23544 | 36196 ft | 416 kts | 259° |
| 2026-05-04 19:46 | 31.05508 | -132.29932 | 36208 ft | 416 kts | 259° |
| 2026-05-04 19:47 | 31.03625 | -132.36295 | 36207 ft | 416 kts | 259° |
| 2026-05-04 19:47 | 31.01743 | -132.42637 | 36180 ft | 417 kts | 259° |
| 2026-05-04 19:48 | 30.99845 | -132.49022 | 36213 ft | 417 kts | 259° |
| 2026-05-04 19:48 | 30.97942 | -132.55414 | 36213 ft | 417 kts | 259° |
| 2026-05-04 19:49 | 30.96042 | -132.61779 | 36185 ft | 417 kts | 258° |
| 2026-05-04 19:49 | 30.94143 | -132.68128 | 36213 ft | 418 kts | 258° |
| 2026-05-04 19:50 | 30.92231 | -132.74510 | 36214 ft | 417 kts | 258° |
| 2026-05-04 19:50 | 30.90313 | -132.80896 | 36218 ft | 418 kts | 258° |
| 2026-05-04 19:51 | 30.88396 | -132.87266 | 36216 ft | 418 kts | 258° |
| 2026-05-04 19:51 | 30.86473 | -132.93644 | 36217 ft | 418 kts | 258° |
| 2026-05-04 19:52 | 30.84561 | -132.99975 | 36222 ft | 418 kts | 258° |
| 2026-05-04 19:52 | 30.82630 | -133.06352 | 36212 ft | 418 kts | 258° |
| 2026-05-04 19:53 | 30.80694 | -133.12735 | 36224 ft | 418 kts | 258° |
| 2026-05-04 19:53 | 30.78760 | -133.19099 | 36231 ft | 418 kts | 258° |
| 2026-05-04 19:54 | 30.76830 | -133.25434 | 36212 ft | 419 kts | 258° |
| 2026-05-04 19:54 | 30.74882 | -133.31820 | 36228 ft | 419 kts | 258° |
| 2026-05-04 19:55 | 30.72931 | -133.38200 | 36226 ft | 419 kts | 258° |
| 2026-05-04 19:55 | 30.70980 | -133.44568 | 36212 ft | 419 kts | 257° |
| 2026-05-04 19:56 | 30.69023 | -133.50942 | 36230 ft | 419 kts | 257° |
| 2026-05-04 19:56 | 30.67078 | -133.57264 | 36235 ft | 418 kts | 257° |
| 2026-05-04 19:57 | 30.65117 | -133.63627 | 36216 ft | 418 kts | 257° |
| 2026-05-04 19:57 | 30.63156 | -133.69975 | 36240 ft | 419 kts | 257° |
| 2026-05-04 19:58 | 30.61190 | -133.76329 | 36238 ft | 418 kts | 257° |
| 2026-05-04 19:58 | 30.59219 | -133.82687 | 36237 ft | 418 kts | 257° |
| 2026-05-04 19:59 | 30.57260 | -133.88992 | 36236 ft | 418 kts | 257° |
| 2026-05-04 19:59 | 30.55285 | -133.95336 | 36243 ft | 418 kts | 257° |
| 2026-05-04 20:00 | 30.53309 | -134.01673 | 36246 ft | 419 kts | 257° |
| 2026-05-04 20:00 | 30.51338 | -134.07980 | 36248 ft | 419 kts | 256° |
| 2026-05-04 20:01 | 30.49350 | -134.14330 | 36246 ft | 419 kts | 256° |
| 2026-05-04 20:01 | 30.47358 | -134.20678 | 36246 ft | 419 kts | 256° |
| 2026-05-04 20:02 | 30.45367 | -134.27012 | 36246 ft | 420 kts | 256° |
| 2026-05-04 20:02 | 30.43365 | -134.33370 | 36247 ft | 420 kts | 256° |
| 2026-05-04 20:03 | 30.41371 | -134.39687 | 36249 ft | 420 kts | 256° |
| 2026-05-04 20:03 | 30.39361 | -134.46044 | 36246 ft | 421 kts | 256° |
| 2026-05-04 20:04 | 30.37351 | -134.52391 | 36249 ft | 421 kts | 256° |
| 2026-05-04 20:04 | 30.35331 | -134.58756 | 36251 ft | 421 kts | 256° |
| 2026-05-04 20:05 | 30.33324 | -134.65064 | 36243 ft | 421 kts | 255° |
| 2026-05-04 20:05 | 30.31295 | -134.71435 | 36248 ft | 422 kts | 255° |
| 2026-05-04 20:06 | 30.29267 | -134.77786 | 36251 ft | 422 kts | 255° |
| 2026-05-04 20:06 | 30.27231 | -134.84152 | 36250 ft | 422 kts | 255° |
| 2026-05-04 20:07 | 30.25193 | -134.90510 | 36254 ft | 422 kts | 255° |
| 2026-05-04 20:07 | 30.23164 | -134.96829 | 36252 ft | 422 kts | 255° |
| 2026-05-04 20:08 | 30.21119 | -135.03186 | 36241 ft | 423 kts | 255° |
| 2026-05-04 20:08 | 30.19068 | -135.09549 | 36251 ft | 423 kts | 255° |
| 2026-05-04 20:09 | 30.17012 | -135.15917 | 36227 ft | 423 kts | 255° |
| 2026-05-04 20:09 | 30.14965 | -135.22242 | 36256 ft | 424 kts | 255° |
| 2026-05-04 20:10 | 30.12897 | -135.28623 | 36260 ft | 424 kts | 255° |
| 2026-05-04 20:10 | 30.10831 | -135.34983 | 36262 ft | 424 kts | 255° |
| 2026-05-04 20:11 | 30.08758 | -135.41354 | 36260 ft | 424 kts | 255° |
| 2026-05-04 20:11 | 30.06689 | -135.47699 | 36259 ft | 425 kts | 254° |
| 2026-05-04 20:12 | 30.04605 | -135.54080 | 36262 ft | 425 kts | 254° |
| 2026-05-04 20:12 | 30.02524 | -135.60439 | 36258 ft | 425 kts | 254° |
| 2026-05-04 20:13 | 30.00428 | -135.66832 | 36266 ft | 426 kts | 254° |
| 2026-05-04 20:13 | 29.98345 | -135.73171 | 36265 ft | 426 kts | 254° |
| 2026-05-04 20:14 | 29.96241 | -135.79564 | 36255 ft | 426 kts | 254° |
| 2026-05-04 20:14 | 29.94138 | -135.85943 | 36265 ft | 427 kts | 254° |
| 2026-05-04 20:15 | 29.92025 | -135.92337 | 36270 ft | 427 kts | 254° |
| 2026-05-04 20:15 | 29.89926 | -135.98679 | 36254 ft | 427 kts | 254° |
| 2026-05-04 20:16 | 29.87807 | -136.05071 | 36266 ft | 427 kts | 254° |
| 2026-05-04 20:16 | 29.85682 | -136.11467 | 36271 ft | 427 kts | 254° |
| 2026-05-04 20:17 | 29.83559 | -136.17843 | 36263 ft | 427 kts | 253° |
| 2026-05-04 20:17 | 29.81442 | -136.24193 | 36271 ft | 428 kts | 253° |
| 2026-05-04 20:18 | 29.79308 | -136.30580 | 36273 ft | 427 kts | 253° |
| 2026-05-04 20:18 | 29.77171 | -136.36963 | 36265 ft | 427 kts | 253° |
| 2026-05-04 20:19 | 29.75033 | -136.43340 | 36276 ft | 428 kts | 253° |
| 2026-05-04 20:19 | 29.72886 | -136.49730 | 36276 ft | 428 kts | 253° |
| 2026-05-04 20:20 | 29.70752 | -136.56070 | 36269 ft | 428 kts | 253° |
| 2026-05-04 20:20 | 29.68600 | -136.62451 | 36279 ft | 428 kts | 253° |
| 2026-05-04 20:21 | 29.66450 | -136.68817 | 36277 ft | 428 kts | 253° |
| 2026-05-04 20:21 | 29.63210 | -136.78384 | 36279 ft | 428 kts | 253° |
| 2026-05-04 20:22 | 29.61060 | -136.84719 | 36278 ft | 428 kts | 253° |
| 2026-05-04 20:22 | 29.58894 | -136.91091 | 36274 ft | 428 kts | 253° |
| 2026-05-04 20:23 | 29.56728 | -136.97448 | 36285 ft | 428 kts | 253° |
| 2026-05-04 20:23 | 29.54555 | -137.03817 | 36282 ft | 428 kts | 253° |
| 2026-05-04 20:24 | 29.52392 | -137.10143 | 36266 ft | 428 kts | 252° |
| 2026-05-04 20:24 | 29.50212 | -137.16508 | 36278 ft | 429 kts | 252° |
| 2026-05-04 20:25 | 29.48034 | -137.22857 | 36281 ft | 429 kts | 252° |
| 2026-05-04 20:25 | 29.45846 | -137.29221 | 36283 ft | 428 kts | 252° |
| 2026-05-04 20:26 | 29.43655 | -137.35583 | 36284 ft | 428 kts | 252° |
| 2026-05-04 20:26 | 29.41479 | -137.41891 | 36276 ft | 428 kts | 252° |
| 2026-05-04 20:27 | 29.39287 | -137.48233 | 36283 ft | 429 kts | 252° |
| 2026-05-04 20:27 | 29.37089 | -137.54582 | 36284 ft | 429 kts | 252° |
| 2026-05-04 20:28 | 29.34886 | -137.60931 | 36280 ft | 428 kts | 252° |
| 2026-05-04 20:28 | 29.32684 | -137.67270 | 36276 ft | 428 kts | 252° |
| 2026-05-04 20:29 | 29.30496 | -137.73554 | 36286 ft | 428 kts | 252° |
| 2026-05-04 20:29 | 29.28286 | -137.79893 | 36284 ft | 428 kts | 252° |
| 2026-05-04 20:30 | 29.26074 | -137.86223 | 36288 ft | 428 kts | 252° |
| 2026-05-04 20:30 | 29.23862 | -137.92546 | 36290 ft | 428 kts | 252° |
| 2026-05-04 20:31 | 29.21660 | -137.98827 | 36281 ft | 428 kts | 252° |
| 2026-05-04 20:31 | 29.19442 | -138.05140 | 36286 ft | 428 kts | 252° |
| 2026-05-04 20:32 | 29.17220 | -138.11457 | 36287 ft | 428 kts | 251° |
| 2026-05-04 20:32 | 29.14993 | -138.17775 | 36287 ft | 428 kts | 251° |
| 2026-05-04 20:33 | 29.12778 | -138.24046 | 36289 ft | 428 kts | 251° |
| 2026-05-04 20:33 | 29.10554 | -138.30337 | 36288 ft | 428 kts | 251° |
| 2026-05-04 20:34 | 29.08321 | -138.36639 | 36286 ft | 428 kts | 251° |
| 2026-05-04 20:34 | 29.06086 | -138.42937 | 36286 ft | 428 kts | 251° |
| 2026-05-04 20:35 | 29.03848 | -138.49230 | 36288 ft | 427 kts | 251° |
| 2026-05-04 20:35 | 29.01631 | -138.55457 | 36290 ft | 427 kts | 251° |
| 2026-05-04 20:36 | 28.99388 | -138.61741 | 36290 ft | 427 kts | 251° |
| 2026-05-04 20:36 | 28.97143 | -138.68023 | 36286 ft | 427 kts | 251° |
| 2026-05-04 20:37 | 28.94900 | -138.74289 | 36286 ft | 427 kts | 251° |
| 2026-05-04 20:37 | 28.92672 | -138.80506 | 36289 ft | 427 kts | 251° |
| 2026-05-04 20:38 | 28.90421 | -138.86776 | 36279 ft | 427 kts | 251° |
| 2026-05-04 20:38 | 28.88166 | -138.93045 | 36289 ft | 427 kts | 251° |
| 2026-05-04 20:39 | 28.85912 | -138.99302 | 36289 ft | 427 kts | 251° |
| 2026-05-04 20:39 | 28.83667 | -139.05524 | 36288 ft | 427 kts | 251° |
| 2026-05-04 20:40 | 28.81413 | -139.11760 | 36287 ft | 427 kts | 250° |
| 2026-05-04 20:40 | 28.79149 | -139.18015 | 36275 ft | 427 kts | 250° |
| 2026-05-04 20:41 | 28.76882 | -139.24264 | 36290 ft | 427 kts | 250° |
| 2026-05-04 20:41 | 28.74614 | -139.30509 | 36290 ft | 426 kts | 250° |
| 2026-05-04 20:42 | 28.72361 | -139.36699 | 36290 ft | 427 kts | 250° |
| 2026-05-04 20:42 | 28.70084 | -139.42923 | 36290 ft | 427 kts | 250° |
| 2026-05-04 20:43 | 28.67788 | -139.49154 | 36280 ft | 426 kts | 250° |
| 2026-05-04 20:43 | 28.65500 | -139.55382 | 36289 ft | 427 kts | 250° |
| 2026-05-04 20:44 | 28.63228 | -139.61561 | 36293 ft | 427 kts | 250° |
| 2026-05-04 20:44 | 28.60934 | -139.67787 | 36293 ft | 427 kts | 250° |
| 2026-05-04 20:45 | 28.58636 | -139.74014 | 36290 ft | 427 kts | 250° |
| 2026-05-04 20:45 | 28.56350 | -139.80198 | 36283 ft | 426 kts | 250° |
| 2026-05-04 20:46 | 28.54071 | -139.86355 | 36283 ft | 426 kts | 250° |
| 2026-05-04 20:46 | 28.51768 | -139.92563 | 36289 ft | 426 kts | 250° |
| 2026-05-04 20:47 | 28.49460 | -139.98777 | 36291 ft | 426 kts | 250° |
| 2026-05-04 20:47 | 28.47151 | -140.04983 | 36290 ft | 426 kts | 250° |
| 2026-05-04 20:48 | 28.44865 | -140.11116 | 36289 ft | 426 kts | 250° |
| 2026-05-04 20:48 | 28.42556 | -140.17303 | 36289 ft | 426 kts | 250° |
| 2026-05-04 20:49 | 28.40238 | -140.23501 | 36280 ft | 426 kts | 249° |
| 2026-05-04 20:49 | 28.37923 | -140.29681 | 36289 ft | 426 kts | 249° |
| 2026-05-04 20:50 | 28.35602 | -140.35868 | 36286 ft | 426 kts | 249° |
| 2026-05-04 20:50 | 28.33281 | -140.42045 | 36286 ft | 426 kts | 249° |
| 2026-05-04 20:51 | 28.30968 | -140.48189 | 36289 ft | 426 kts | 249° |
| 2026-05-04 20:51 | 28.28639 | -140.54367 | 36285 ft | 426 kts | 249° |
| 2026-05-04 20:52 | 28.26305 | -140.60549 | 36285 ft | 426 kts | 249° |
| 2026-05-04 20:52 | 28.23990 | -140.66668 | 36283 ft | 426 kts | 249° |
| 2026-05-04 20:53 | 28.21662 | -140.72813 | 36278 ft | 426 kts | 249° |
| 2026-05-04 20:53 | 28.19330 | -140.78959 | 36288 ft | 426 kts | 249° |
| 2026-05-04 20:54 | 28.16991 | -140.85114 | 36285 ft | 426 kts | 249° |
| 2026-05-04 20:54 | 28.14651 | -140.91261 | 36288 ft | 426 kts | 249° |
| 2026-05-04 20:55 | 28.12322 | -140.97370 | 36287 ft | 426 kts | 249° |
| 2026-05-04 20:55 | 28.09987 | -141.03482 | 36286 ft | 426 kts | 249° |
| 2026-05-04 20:56 | 28.07633 | -141.09636 | 36284 ft | 426 kts | 249° |
| 2026-05-04 20:56 | 28.05282 | -141.15773 | 36287 ft | 426 kts | 249° |
| 2026-05-04 20:57 | 28.02938 | -141.21882 | 36286 ft | 426 kts | 249° |
| 2026-05-04 20:57 | 28.00583 | -141.28008 | 36286 ft | 426 kts | 249° |
| 2026-05-04 20:58 | 27.98216 | -141.34157 | 36283 ft | 426 kts | 249° |
| 2026-05-04 20:58 | 27.95854 | -141.40284 | 36280 ft | 426 kts | 249° |
| 2026-05-04 20:59 | 27.93485 | -141.46417 | 36284 ft | 426 kts | 249° |
| 2026-05-04 20:59 | 27.91130 | -141.52507 | 36281 ft | 426 kts | 249° |
| 2026-05-04 21:00 | 27.88752 | -141.58643 | 36281 ft | 426 kts | 249° |
| 2026-05-04 21:00 | 27.86374 | -141.64772 | 36281 ft | 426 kts | 249° |
| 2026-05-04 21:01 | 27.84000 | -141.70882 | 36280 ft | 426 kts | 249° |
| 2026-05-04 21:01 | 27.81632 | -141.76964 | 36277 ft | 426 kts | 249° |
| 2026-05-04 21:02 | 27.79244 | -141.83089 | 36281 ft | 426 kts | 248° |
| 2026-05-04 21:02 | 27.76857 | -141.89203 | 36279 ft | 425 kts | 248° |
| 2026-05-04 21:03 | 27.74473 | -141.95299 | 36279 ft | 425 kts | 248° |
| 2026-05-04 21:03 | 27.72096 | -142.01368 | 36272 ft | 426 kts | 248° |
| 2026-05-04 21:04 | 27.69701 | -142.07473 | 36281 ft | 425 kts | 248° |
| 2026-05-04 21:04 | 27.67307 | -142.13565 | 36279 ft | 425 kts | 248° |
| 2026-05-04 21:05 | 27.64913 | -142.19650 | 36278 ft | 425 kts | 248° |
| 2026-05-04 21:05 | 27.62532 | -142.25691 | 36279 ft | 425 kts | 248° |
| 2026-05-04 21:06 | 27.60129 | -142.31779 | 36279 ft | 424 kts | 248° |
| 2026-05-04 21:06 | 27.57728 | -142.37852 | 36272 ft | 424 kts | 248° |
| 2026-05-04 21:07 | 27.55322 | -142.43928 | 36277 ft | 425 kts | 248° |
| 2026-05-04 21:07 | 27.52935 | -142.49949 | 36275 ft | 425 kts | 248° |
| 2026-05-04 21:08 | 27.50521 | -142.56027 | 36281 ft | 424 kts | 248° |
| 2026-05-04 21:08 | 27.48111 | -142.62087 | 36279 ft | 424 kts | 248° |
| 2026-05-04 21:09 | 27.45698 | -142.68143 | 36277 ft | 424 kts | 248° |
| 2026-05-04 21:09 | 27.43304 | -142.74142 | 36278 ft | 425 kts | 248° |
| 2026-05-04 21:10 | 27.40884 | -142.80200 | 36276 ft | 424 kts | 248° |
| 2026-05-04 21:10 | 27.38465 | -142.86244 | 36276 ft | 424 kts | 248° |
| 2026-05-04 21:11 | 27.36042 | -142.92289 | 36274 ft | 424 kts | 248° |
| 2026-05-04 21:11 | 27.33623 | -142.98316 | 36275 ft | 424 kts | 248° |
| 2026-05-04 21:12 | 27.31214 | -143.04310 | 36269 ft | 423 kts | 248° |
| 2026-05-04 21:12 | 27.28787 | -143.10338 | 36270 ft | 423 kts | 248° |
| 2026-05-04 21:13 | 27.26358 | -143.16362 | 36275 ft | 423 kts | 248° |
| 2026-05-04 21:13 | 27.23932 | -143.22369 | 36274 ft | 423 kts | 248° |
| 2026-05-04 21:14 | 27.21497 | -143.28389 | 36277 ft | 423 kts | 248° |
| 2026-05-04 21:14 | 27.19082 | -143.34352 | 36272 ft | 422 kts | 248° |
| 2026-05-04 21:15 | 27.16649 | -143.40351 | 36270 ft | 423 kts | 248° |
| 2026-05-04 21:15 | 27.14217 | -143.46338 | 36274 ft | 423 kts | 248° |
| 2026-05-04 21:16 | 27.11782 | -143.52324 | 36263 ft | 423 kts | 248° |
| 2026-05-04 21:16 | 27.09337 | -143.58325 | 36271 ft | 423 kts | 247° |
| 2026-05-04 21:17 | 27.06908 | -143.64278 | 36272 ft | 422 kts | 247° |
| 2026-05-04 21:17 | 27.04458 | -143.70273 | 36265 ft | 422 kts | 247° |
| 2026-05-04 21:18 | 27.02012 | -143.76250 | 36270 ft | 423 kts | 247° |
| 2026-05-04 21:18 | 26.99559 | -143.82236 | 36264 ft | 422 kts | 247° |
| 2026-05-04 21:19 | 26.97121 | -143.88176 | 36269 ft | 422 kts | 247° |
| 2026-05-04 21:19 | 26.94663 | -143.94156 | 36263 ft | 422 kts | 247° |
| 2026-05-04 21:20 | 26.92208 | -144.00120 | 36268 ft | 422 kts | 247° |
| 2026-05-04 21:20 | 26.89749 | -144.06086 | 36254 ft | 422 kts | 247° |
| 2026-05-04 21:21 | 26.87302 | -144.12012 | 36253 ft | 422 kts | 247° |
| 2026-05-04 21:21 | 26.84832 | -144.17987 | 36257 ft | 422 kts | 247° |
| 2026-05-04 21:22 | 26.82368 | -144.23939 | 36260 ft | 422 kts | 247° |
| 2026-05-04 21:22 | 26.79898 | -144.29896 | 36260 ft | 421 kts | 247° |
| 2026-05-04 21:23 | 26.77447 | -144.35800 | 36254 ft | 421 kts | 247° |
| 2026-05-04 21:23 | 26.74974 | -144.41747 | 36251 ft | 422 kts | 247° |
| 2026-05-04 21:24 | 26.72497 | -144.47694 | 36257 ft | 422 kts | 247° |
| 2026-05-04 21:24 | 26.70020 | -144.53635 | 36266 ft | 421 kts | 247° |
| 2026-05-04 21:25 | 26.67560 | -144.59527 | 36264 ft | 421 kts | 247° |
| 2026-05-04 21:25 | 26.65077 | -144.65464 | 36249 ft | 421 kts | 247° |
| 2026-05-04 21:26 | 26.62595 | -144.71389 | 36257 ft | 421 kts | 247° |
| 2026-05-04 21:26 | 26.60117 | -144.77298 | 36248 ft | 421 kts | 247° |
| 2026-05-04 21:27 | 26.57629 | -144.83222 | 36254 ft | 421 kts | 247° |
| 2026-05-04 21:27 | 26.55155 | -144.89104 | 36255 ft | 421 kts | 246° |
| 2026-05-04 21:28 | 26.52661 | -144.95027 | 36255 ft | 421 kts | 246° |
| 2026-05-04 21:28 | 26.50170 | -145.00932 | 36257 ft | 421 kts | 246° |
| 2026-05-04 21:29 | 26.47674 | -145.06841 | 36244 ft | 420 kts | 246° |
| 2026-05-04 21:29 | 26.45195 | -145.12703 | 36249 ft | 421 kts | 246° |
| 2026-05-04 21:30 | 26.42696 | -145.18603 | 36249 ft | 420 kts | 246° |
| 2026-05-04 21:30 | 26.40198 | -145.24493 | 36255 ft | 420 kts | 246° |
| 2026-05-04 21:31 | 26.36446 | -145.33323 | 36246 ft | 420 kts | 246° |
| 2026-05-04 21:32 | 26.33941 | -145.39208 | 36256 ft | 420 kts | 246° |
| 2026-05-04 21:32 | 26.31450 | -145.45052 | 36251 ft | 420 kts | 246° |
| 2026-05-04 21:33 | 26.28944 | -145.50923 | 36253 ft | 420 kts | 246° |
| 2026-05-04 21:33 | 26.26429 | -145.56812 | 36250 ft | 420 kts | 246° |
| 2026-05-04 21:34 | 26.23916 | -145.62685 | 36244 ft | 420 kts | 246° |
| 2026-05-04 21:34 | 26.21417 | -145.68520 | 36244 ft | 420 kts | 246° |
| 2026-05-04 21:35 | 26.18898 | -145.74393 | 36244 ft | 420 kts | 246° |
| 2026-05-04 21:35 | 26.16382 | -145.80250 | 36248 ft | 420 kts | 246° |
| 2026-05-04 21:36 | 26.13859 | -145.86117 | 36240 ft | 420 kts | 246° |
| 2026-05-04 21:36 | 26.11347 | -145.91947 | 36240 ft | 420 kts | 246° |
| 2026-05-04 21:37 | 26.08820 | -145.97807 | 36242 ft | 420 kts | 246° |
| 2026-05-04 21:37 | 26.06295 | -146.03655 | 36240 ft | 420 kts | 246° |
| 2026-05-04 21:38 | 26.03763 | -146.09511 | 36239 ft | 420 kts | 246° |
| 2026-05-04 21:38 | 26.01244 | -146.15328 | 36241 ft | 420 kts | 246° |
| 2026-05-04 21:39 | 25.98698 | -146.21173 | 36227 ft | 420 kts | 246° |
| 2026-05-04 21:39 | 25.96163 | -146.27015 | 36238 ft | 420 kts | 246° |
| 2026-05-04 21:40 | 25.93623 | -146.32863 | 36235 ft | 420 kts | 246° |
| 2026-05-04 21:40 | 25.91099 | -146.38668 | 36235 ft | 420 kts | 246° |
| 2026-05-04 21:41 | 25.88552 | -146.44516 | 36236 ft | 420 kts | 246° |
| 2026-05-04 21:41 | 25.86006 | -146.50357 | 36236 ft | 420 kts | 246° |
| 2026-05-04 21:42 | 25.83461 | -146.56184 | 36233 ft | 420 kts | 246° |
| 2026-05-04 21:42 | 25.80927 | -146.61981 | 36231 ft | 420 kts | 246° |
| 2026-05-04 21:43 | 25.78371 | -146.67818 | 36234 ft | 420 kts | 246° |
| 2026-05-04 21:43 | 25.75814 | -146.73651 | 36233 ft | 420 kts | 246° |
| 2026-05-04 21:44 | 25.73268 | -146.79451 | 36234 ft | 420 kts | 246° |
| 2026-05-04 21:44 | 25.70722 | -146.85243 | 36228 ft | 420 kts | 246° |
| 2026-05-04 21:45 | 25.68158 | -146.91069 | 36231 ft | 421 kts | 246° |
| 2026-05-04 21:45 | 25.65588 | -146.96902 | 36221 ft | 420 kts | 246° |
| 2026-05-04 21:46 | 25.63026 | -147.02707 | 36222 ft | 420 kts | 246° |
| 2026-05-04 21:46 | 25.60456 | -147.08523 | 36226 ft | 420 kts | 246° |
| 2026-05-04 21:47 | 25.57900 | -147.14299 | 36230 ft | 421 kts | 246° |
| 2026-05-04 21:47 | 25.55322 | -147.20118 | 36227 ft | 421 kts | 246° |
| 2026-05-04 21:48 | 25.52745 | -147.25926 | 36225 ft | 421 kts | 246° |
| 2026-05-04 21:48 | 25.50160 | -147.31746 | 36225 ft | 421 kts | 246° |
| 2026-05-04 21:49 | 25.47596 | -147.37509 | 36221 ft | 421 kts | 246° |
| 2026-05-04 21:49 | 25.45011 | -147.43313 | 36225 ft | 420 kts | 246° |
| 2026-05-04 21:50 | 25.42422 | -147.49117 | 36223 ft | 420 kts | 246° |
| 2026-05-04 21:50 | 25.39838 | -147.54904 | 36221 ft | 421 kts | 246° |
| 2026-05-04 21:51 | 25.37247 | -147.60699 | 36218 ft | 421 kts | 246° |
| 2026-05-04 21:51 | 25.34671 | -147.66454 | 36219 ft | 421 kts | 246° |
| 2026-05-04 21:52 | 25.32072 | -147.72249 | 36212 ft | 420 kts | 246° |
| 2026-05-04 21:52 | 25.29480 | -147.78023 | 36221 ft | 420 kts | 246° |
| 2026-05-04 21:53 | 25.26882 | -147.83804 | 36223 ft | 420 kts | 246° |
| 2026-05-04 21:53 | 25.24279 | -147.89586 | 36222 ft | 420 kts | 246° |
| 2026-05-04 21:54 | 25.21691 | -147.95331 | 36223 ft | 420 kts | 246° |
| 2026-05-04 21:54 | 25.19090 | -148.01094 | 36217 ft | 420 kts | 246° |
| 2026-05-04 21:55 | 25.16482 | -148.06866 | 36219 ft | 420 kts | 246° |
| 2026-05-04 21:55 | 25.13869 | -148.12643 | 36216 ft | 421 kts | 246° |
| 2026-05-04 21:56 | 25.11272 | -148.18376 | 36218 ft | 420 kts | 246° |
| 2026-05-04 21:56 | 25.08655 | -148.24147 | 36219 ft | 421 kts | 246° |
| 2026-05-04 21:57 | 25.06047 | -148.29889 | 36217 ft | 421 kts | 246° |
| 2026-05-04 21:57 | 25.03431 | -148.35643 | 36216 ft | 421 kts | 246° |
| 2026-05-04 21:58 | 25.00807 | -148.41406 | 36216 ft | 421 kts | 246° |
| 2026-05-04 21:58 | 24.98197 | -148.47131 | 36205 ft | 421 kts | 246° |
| 2026-05-04 21:59 | 24.95574 | -148.52877 | 36216 ft | 421 kts | 246° |
| 2026-05-04 21:59 | 24.92942 | -148.58637 | 36216 ft | 421 kts | 246° |
| 2026-05-04 22:00 | 24.90311 | -148.64387 | 36214 ft | 421 kts | 246° |
| 2026-05-04 22:00 | 24.87693 | -148.70101 | 36216 ft | 421 kts | 246° |
| 2026-05-04 22:01 | 24.85059 | -148.75841 | 36217 ft | 421 kts | 246° |
| 2026-05-04 22:01 | 24.82418 | -148.81592 | 36211 ft | 421 kts | 246° |
| 2026-05-04 22:02 | 24.79776 | -148.87336 | 36211 ft | 421 kts | 246° |
| 2026-05-04 22:02 | 24.77131 | -148.93080 | 36211 ft | 421 kts | 246° |
| 2026-05-04 22:03 | 24.74511 | -148.98763 | 36209 ft | 421 kts | 245° |
| 2026-05-04 22:03 | 24.71861 | -149.04504 | 36215 ft | 421 kts | 246° |
| 2026-05-04 22:04 | 24.69211 | -149.10238 | 36211 ft | 421 kts | 245° |
| 2026-05-04 22:04 | 24.66556 | -149.15974 | 36211 ft | 421 kts | 245° |
| 2026-05-04 22:05 | 24.63924 | -149.21654 | 36211 ft | 421 kts | 245° |
| 2026-05-04 22:05 | 24.61273 | -149.27370 | 36201 ft | 421 kts | 245° |
| 2026-05-04 22:06 | 24.58611 | -149.33101 | 36210 ft | 421 kts | 245° |
| 2026-05-04 22:06 | 24.55951 | -149.38819 | 36208 ft | 420 kts | 245° |
| 2026-05-04 22:07 | 24.53304 | -149.44504 | 36209 ft | 421 kts | 245° |
| 2026-05-04 22:07 | 24.50645 | -149.50207 | 36209 ft | 420 kts | 245° |
| 2026-05-04 22:08 | 24.47980 | -149.55916 | 36208 ft | 420 kts | 245° |
| 2026-05-04 22:08 | 24.45309 | -149.61632 | 36208 ft | 420 kts | 245° |
| 2026-05-04 22:09 | 24.42638 | -149.67338 | 36200 ft | 420 kts | 245° |
| 2026-05-04 22:09 | 24.39999 | -149.72970 | 36207 ft | 420 kts | 245° |
| 2026-05-04 22:10 | 24.37324 | -149.78673 | 36203 ft | 420 kts | 245° |
| 2026-05-04 22:10 | 24.34651 | -149.84365 | 36204 ft | 420 kts | 245° |
| 2026-05-04 22:11 | 24.31992 | -149.90021 | 36204 ft | 420 kts | 245° |
| 2026-05-04 22:11 | 24.29311 | -149.95714 | 36202 ft | 420 kts | 245° |
| 2026-05-04 22:12 | 24.26636 | -150.01388 | 36204 ft | 420 kts | 245° |
| 2026-05-04 22:12 | 24.23954 | -150.07073 | 36193 ft | 420 kts | 245° |
| 2026-05-04 22:13 | 24.21726 | -150.11788 | 36199 ft | 419 kts | 245° |
| 2026-05-04 22:13 | 24.18606 | -150.18384 | 36205 ft | 419 kts | 245° |
| 2026-05-04 22:14 | 24.15930 | -150.24034 | 36201 ft | 419 kts | 245° |
| 2026-05-04 22:14 | 24.13697 | -150.28743 | 36200 ft | 419 kts | 245° |
| 2026-05-04 22:15 | 24.11010 | -150.34403 | 36198 ft | 419 kts | 245° |
| 2026-05-04 22:15 | 24.08317 | -150.40070 | 36198 ft | 419 kts | 245° |
| 2026-05-04 22:16 | 24.05633 | -150.45712 | 36188 ft | 419 kts | 245° |
| 2026-05-04 22:16 | 24.02960 | -150.51322 | 36195 ft | 419 kts | 245° |
| 2026-05-04 22:17 | 24.00268 | -150.56965 | 36198 ft | 419 kts | 245° |
| 2026-05-04 22:17 | 23.97135 | -150.63526 | 36197 ft | 419 kts | 245° |
| 2026-05-04 22:18 | 23.94875 | -150.68253 | 36197 ft | 419 kts | 245° |
| 2026-05-04 22:18 | 23.92202 | -150.73837 | 36194 ft | 419 kts | 245° |
| 2026-05-04 22:19 | 23.89502 | -150.79472 | 36197 ft | 418 kts | 245° |
| 2026-05-04 22:19 | 23.86800 | -150.85103 | 36181 ft | 418 kts | 245° |
| 2026-05-04 22:20 | 23.84099 | -150.90727 | 36190 ft | 418 kts | 245° |
| 2026-05-04 22:20 | 23.81421 | -150.96297 | 36192 ft | 418 kts | 245° |
| 2026-05-04 22:21 | 23.78711 | -151.01924 | 36193 ft | 418 kts | 245° |
| 2026-05-04 22:21 | 23.76004 | -151.07540 | 36191 ft | 418 kts | 245° |
| 2026-05-04 22:22 | 23.73296 | -151.13152 | 36192 ft | 418 kts | 245° |
| 2026-05-04 22:22 | 23.70615 | -151.18701 | 36192 ft | 418 kts | 245° |
| 2026-05-04 22:23 | 23.67902 | -151.24310 | 36192 ft | 418 kts | 245° |
| 2026-05-04 22:23 | 23.65190 | -151.29909 | 36199 ft | 418 kts | 245° |
| 2026-05-04 22:24 | 23.62473 | -151.35514 | 36192 ft | 418 kts | 245° |
| 2026-05-04 22:24 | 23.59777 | -151.41068 | 36189 ft | 417 kts | 245° |
| 2026-05-04 22:25 | 23.57065 | -151.46650 | 36185 ft | 417 kts | 245° |
| 2026-05-04 22:25 | 23.54347 | -151.52237 | 36182 ft | 417 kts | 245° |
| 2026-05-04 22:26 | 23.51626 | -151.57823 | 36181 ft | 417 kts | 245° |
| 2026-05-04 22:26 | 23.48902 | -151.63410 | 36188 ft | 417 kts | 245° |
| 2026-05-04 22:27 | 23.46200 | -151.68945 | 36178 ft | 417 kts | 245° |
| 2026-05-04 22:27 | 23.43470 | -151.74530 | 36188 ft | 418 kts | 245° |
| 2026-05-04 22:28 | 23.40741 | -151.80109 | 36185 ft | 418 kts | 245° |
| 2026-05-04 22:28 | 23.38006 | -151.85692 | 36182 ft | 418 kts | 245° |
| 2026-05-04 22:29 | 23.35296 | -151.91219 | 36186 ft | 418 kts | 245° |
| 2026-05-04 22:29 | 23.32563 | -151.96785 | 36183 ft | 416 kts | 245° |
| 2026-05-04 22:30 | 23.29836 | -152.02336 | 36182 ft | 416 kts | 245° |
| 2026-05-04 22:30 | 23.27109 | -152.07881 | 36182 ft | 416 kts | 245° |
| 2026-05-04 22:31 | 23.24393 | -152.13396 | 36180 ft | 417 kts | 245° |
| 2026-05-04 22:31 | 23.21657 | -152.18945 | 36178 ft | 417 kts | 245° |
| 2026-05-04 22:32 | 23.18912 | -152.24509 | 36180 ft | 417 kts | 245° |
| 2026-05-04 22:32 | 23.16171 | -152.30058 | 36178 ft | 417 kts | 245° |
| 2026-05-04 22:33 | 23.13425 | -152.35609 | 36174 ft | 417 kts | 245° |
| 2026-05-04 22:33 | 23.10704 | -152.41105 | 36175 ft | 417 kts | 245° |
| 2026-05-04 22:34 | 23.07956 | -152.46649 | 36175 ft | 417 kts | 245° |
| 2026-05-04 22:34 | 23.05206 | -152.52191 | 36167 ft | 417 kts | 244° |
| 2026-05-04 22:35 | 23.02441 | -152.57742 | 36175 ft | 418 kts | 244° |
| 2026-05-04 22:35 | 22.99662 | -152.63268 | 36175 ft | 418 kts | 244° |
| 2026-05-04 22:36 | 22.96934 | -152.68709 | 36174 ft | 418 kts | 244° |
| 2026-05-04 22:36 | 22.94152 | -152.74249 | 36173 ft | 418 kts | 244° |
| 2026-05-04 22:37 | 22.91370 | -152.79785 | 36172 ft | 418 kts | 244° |
| 2026-05-04 22:37 | 22.88584 | -152.85322 | 36173 ft | 418 kts | 244° |
| 2026-05-04 22:38 | 22.85824 | -152.90801 | 36168 ft | 418 kts | 244° |
| 2026-05-04 22:38 | 22.83036 | -152.96331 | 36170 ft | 418 kts | 244° |
| 2026-05-04 22:39 | 22.80247 | -153.01857 | 36171 ft | 418 kts | 244° |
| 2026-05-04 22:39 | 22.77453 | -153.07385 | 36170 ft | 418 kts | 244° |
| 2026-05-04 22:40 | 22.74667 | -153.12892 | 36171 ft | 418 kts | 244° |
| 2026-05-04 22:40 | 22.71892 | -153.18372 | 36169 ft | 418 kts | 244° |
| 2026-05-04 22:41 | 22.69095 | -153.23889 | 36165 ft | 418 kts | 244° |
| 2026-05-04 22:41 | 22.66296 | -153.29404 | 36168 ft | 418 kts | 244° |
| 2026-05-04 22:42 | 22.63501 | -153.34904 | 36154 ft | 418 kts | 244° |
| 2026-05-04 22:42 | 22.60691 | -153.40431 | 36168 ft | 420 kts | 244° |
| 2026-05-04 22:43 | 22.57893 | -153.45924 | 36162 ft | 420 kts | 244° |
| 2026-05-04 22:43 | 22.55073 | -153.51457 | 36166 ft | 420 kts | 244° |
| 2026-05-04 22:44 | 22.52257 | -153.56977 | 36167 ft | 420 kts | 244° |
| 2026-05-04 22:44 | 22.49438 | -153.62495 | 36165 ft | 420 kts | 244° |
| 2026-05-04 22:45 | 22.46633 | -153.67981 | 36164 ft | 420 kts | 244° |
| 2026-05-04 22:45 | 22.42392 | -153.76262 | 36163 ft | 420 kts | 244° |
| 2026-05-04 22:46 | 22.39566 | -153.81777 | 36160 ft | 422 kts | 244° |
| 2026-05-04 22:46 | 22.36835 | -153.87376 | 36149 ft | 419 kts | 253° |
| 2026-05-04 22:47 | 22.35764 | -153.93463 | 36139 ft | 417 kts | 262° |
| 2026-05-04 22:47 | 22.34933 | -153.99671 | 36162 ft | 417 kts | 263° |
| 2026-05-04 22:48 | 22.34154 | -154.05878 | 36155 ft | 417 kts | 263° |
| 2026-05-04 22:48 | 22.33388 | -154.12075 | 36161 ft | 417 kts | 263° |
| 2026-05-04 22:49 | 22.32623 | -154.18244 | 36157 ft | 417 kts | 263° |
| 2026-05-04 22:49 | 22.31851 | -154.24458 | 36161 ft | 417 kts | 263° |
| 2026-05-04 22:50 | 22.31077 | -154.30668 | 36161 ft | 417 kts | 263° |
| 2026-05-04 22:50 | 22.30301 | -154.36867 | 36158 ft | 417 kts | 263° |
| 2026-05-04 22:51 | 22.29523 | -154.43072 | 36158 ft | 417 kts | 263° |
| 2026-05-04 22:51 | 22.28746 | -154.49241 | 36154 ft | 417 kts | 263° |
| 2026-05-04 22:52 | 22.27962 | -154.55452 | 36158 ft | 417 kts | 263° |
| 2026-05-04 22:52 | 22.27178 | -154.61643 | 36144 ft | 417 kts | 263° |
| 2026-05-04 22:53 | 22.26388 | -154.67864 | 36157 ft | 420 kts | 263° |
| 2026-05-04 22:53 | 22.25598 | -154.74063 | 36152 ft | 419 kts | 263° |
| 2026-05-04 22:54 | 22.24800 | -154.80300 | 36157 ft | 419 kts | 263° |
| 2026-05-04 22:54 | 22.24000 | -154.86539 | 36150 ft | 419 kts | 263° |
| 2026-05-04 22:55 | 22.23200 | -154.92761 | 36157 ft | 420 kts | 263° |
| 2026-05-04 22:55 | 22.22401 | -154.98955 | 36153 ft | 420 kts | 262° |
| 2026-05-04 22:56 | 22.21594 | -155.05189 | 36145 ft | 420 kts | 263° |
| 2026-05-04 22:56 | 22.20784 | -155.11433 | 36153 ft | 420 kts | 263° |
| 2026-05-04 22:57 | 22.19974 | -155.17648 | 36154 ft | 420 kts | 262° |
| 2026-05-04 22:57 | 22.19159 | -155.23893 | 36149 ft | 420 kts | 262° |
| 2026-05-04 22:58 | 22.18348 | -155.30083 | 36153 ft | 420 kts | 262° |
| 2026-05-04 22:58 | 22.17529 | -155.36318 | 36151 ft | 420 kts | 262° |
| 2026-05-04 22:59 | 22.16709 | -155.42538 | 36151 ft | 420 kts | 262° |
| 2026-05-04 22:59 | 22.15886 | -155.48768 | 36151 ft | 420 kts | 262° |
| 2026-05-04 23:00 | 22.15065 | -155.54959 | 36153 ft | 420 kts | 262° |
| 2026-05-04 23:00 | 22.14236 | -155.61190 | 36144 ft | 420 kts | 262° |
| 2026-05-04 23:01 | 22.13407 | -155.67411 | 36146 ft | 421 kts | 262° |
| 2026-05-04 23:01 | 22.12570 | -155.73668 | 36150 ft | 421 kts | 262° |
| 2026-05-04 23:02 | 22.11730 | -155.79925 | 36144 ft | 421 kts | 262° |
| 2026-05-04 23:02 | 22.10895 | -155.86131 | 36149 ft | 421 kts | 262° |
| 2026-05-04 23:03 | 22.10052 | -155.92385 | 36149 ft | 421 kts | 262° |
| 2026-05-04 23:03 | 22.09208 | -155.98620 | 36149 ft | 421 kts | 262° |
| 2026-05-04 23:04 | 22.08361 | -156.04859 | 36143 ft | 421 kts | 262° |
| 2026-05-04 23:04 | 22.07515 | -156.11069 | 36136 ft | 422 kts | 262° |
| 2026-05-04 23:05 | 22.06663 | -156.17320 | 36149 ft | 421 kts | 262° |
| 2026-05-04 23:05 | 22.05809 | -156.23559 | 36149 ft | 421 kts | 262° |
| 2026-05-04 23:06 | 22.04952 | -156.29813 | 36137 ft | 422 kts | 262° |
| 2026-05-04 23:06 | 22.04109 | -156.36024 | 36146 ft | 422 kts | 263° |
| 2026-05-04 23:07 | 22.03398 | -156.42293 | 36135 ft | 422 kts | 263° |
| 2026-05-04 23:07 | 22.02678 | -156.48552 | 36140 ft | 422 kts | 263° |
| 2026-05-04 23:08 | 22.01952 | -156.54822 | 36144 ft | 422 kts | 263° |
| 2026-05-04 23:08 | 22.01236 | -156.61067 | 36139 ft | 422 kts | 263° |
| 2026-05-04 23:09 | 22.00518 | -156.67327 | 36140 ft | 422 kts | 263° |
| 2026-05-04 23:09 | 21.99796 | -156.73606 | 36140 ft | 423 kts | 263° |
| 2026-05-04 23:10 | 21.99072 | -156.79882 | 36139 ft | 423 kts | 263° |
| 2026-05-04 23:10 | 21.98345 | -156.86160 | 36138 ft | 423 kts | 263° |
| 2026-05-04 23:11 | 21.97986 | -156.89253 | 35919 ft | 417 kts | 263° |
| 2026-05-04 23:11 | 21.97626 | -156.92346 | 35208 ft | 418 kts | 263° |
| 2026-05-04 23:11 | 21.97261 | -156.95482 | 34373 ft | 424 kts | 263° |
| 2026-05-04 23:11 | 21.96893 | -156.98635 | 33721 ft | 423 kts | 263° |
| 2026-05-04 23:12 | 21.96529 | -157.01751 | 33166 ft | 420 kts | 263° |
| 2026-05-04 23:12 | 21.96167 | -157.04846 | 32659 ft | 416 kts | 263° |
| 2026-05-04 23:12 | 21.95802 | -157.07958 | 32126 ft | 421 kts | 263° |
| 2026-05-04 23:12 | 21.95433 | -157.11097 | 31571 ft | 424 kts | 263° |
| 2026-05-04 23:13 | 21.95062 | -157.14249 | 31021 ft | 423 kts | 263° |
| 2026-05-04 23:13 | 21.94697 | -157.17346 | 30466 ft | 421 kts | 263° |
| 2026-05-04 23:13 | 21.94330 | -157.20463 | 29868 ft | 419 kts | 263° |
| 2026-05-04 23:13 | 21.93962 | -157.23566 | 29253 ft | 416 kts | 263° |
| 2026-05-04 23:14 | 21.93598 | -157.26642 | 28717 ft | 413 kts | 263° |
| 2026-05-04 23:14 | 21.93237 | -157.29688 | 28192 ft | 410 kts | 263° |
| 2026-05-04 23:14 | 21.92877 | -157.32719 | 27663 ft | 407 kts | 263° |
| 2026-05-04 23:14 | 21.92518 | -157.35733 | 27138 ft | 405 kts | 263° |
| 2026-05-04 23:15 | 21.92161 | -157.38733 | 26616 ft | 403 kts | 263° |
| 2026-05-04 23:15 | 21.91805 | -157.41712 | 26101 ft | 401 kts | 263° |
| 2026-05-04 23:15 | 21.91455 | -157.44643 | 25601 ft | 399 kts | 263° |
| 2026-05-04 23:15 | 21.91100 | -157.47605 | 25093 ft | 398 kts | 263° |
| 2026-05-04 23:16 | 21.90747 | -157.50555 | 24601 ft | 397 kts | 263° |
| 2026-05-04 23:16 | 21.90394 | -157.53492 | 24103 ft | 396 kts | 263° |
| 2026-05-04 23:16 | 21.90042 | -157.56415 | 23609 ft | 395 kts | 263° |
| 2026-05-04 23:16 | 21.89646 | -157.59345 | 22973 ft | 396 kts | 262° |
| 2026-05-04 23:17 | 21.89245 | -157.62269 | 22469 ft | 393 kts | 262° |
| 2026-05-04 23:17 | 21.88850 | -157.65163 | 22034 ft | 389 kts | 262° |
| 2026-05-04 23:17 | 21.88459 | -157.68034 | 21581 ft | 386 kts | 262° |
| 2026-05-04 23:17 | 21.88076 | -157.70842 | 21135 ft | 383 kts | 262° |
| 2026-05-04 23:18 | 21.87690 | -157.73674 | 20693 ft | 381 kts | 262° |
| 2026-05-04 23:18 | 21.87305 | -157.76492 | 20257 ft | 379 kts | 262° |
| 2026-05-04 23:18 | 21.86922 | -157.79288 | 19824 ft | 377 kts | 262° |
| 2026-05-04 23:18 | 21.86544 | -157.82051 | 19402 ft | 375 kts | 262° |
| 2026-05-04 23:19 | 21.86011 | -157.84793 | 18891 ft | 375 kts | 249° |
| 2026-05-04 23:19 | 21.84899 | -157.87318 | 18525 ft | 371 kts | 244° |
| 2026-05-04 23:19 | 21.83794 | -157.89784 | 18107 ft | 369 kts | 244° |
| 2026-05-04 23:19 | 21.82673 | -157.92258 | 17607 ft | 368 kts | 244° |
| 2026-05-04 23:20 | 21.81547 | -157.94723 | 17155 ft | 366 kts | 244° |
| 2026-05-04 23:20 | 21.80426 | -157.97166 | 16739 ft | 363 kts | 244° |
| 2026-05-04 23:20 | 21.79318 | -157.99579 | 16339 ft | 360 kts | 244° |
| 2026-05-04 23:20 | 21.78234 | -158.01935 | 15950 ft | 357 kts | 244° |
| 2026-05-04 23:21 | 21.77137 | -158.04321 | 15559 ft | 354 kts | 243° |
| 2026-05-04 23:21 | 21.76050 | -158.06681 | 15175 ft | 352 kts | 243° |
| 2026-05-04 23:21 | 21.74969 | -158.09029 | 14781 ft | 349 kts | 243° |
| 2026-05-04 23:21 | 21.73907 | -158.11334 | 14410 ft | 347 kts | 243° |
| 2026-05-04 23:22 | 21.72840 | -158.13651 | 14038 ft | 345 kts | 243° |
| 2026-05-04 23:22 | 21.71779 | -158.15951 | 13579 ft | 344 kts | 243° |
| 2026-05-04 23:22 | 21.70710 | -158.18269 | 12864 ft | 345 kts | 243° |
| 2026-05-04 23:22 | 21.69649 | -158.20566 | 12158 ft | 341 kts | 243° |
| 2026-05-04 23:23 | 21.68605 | -158.22827 | 11509 ft | 335 kts | 244° |
| 2026-05-04 23:23 | 21.67584 | -158.25037 | 11052 ft | 324 kts | 244° |
| 2026-05-04 23:23 | 21.66596 | -158.27174 | 10791 ft | 314 kts | 244° |
| 2026-05-04 23:23 | 21.65638 | -158.29245 | 10640 ft | 306 kts | 244° |
| 2026-05-04 23:24 | 21.64715 | -158.31241 | 10476 ft | 291 kts | 244° |
| 2026-05-04 23:24 | 21.63850 | -158.33111 | 10349 ft | 277 kts | 244° |
| 2026-05-04 23:24 | 21.63005 | -158.34937 | 10213 ft | 269 kts | 243° |
| 2026-05-04 23:24 | 21.62150 | -158.36690 | 10052 ft | 262 kts | 236° |
| 2026-05-04 23:25 | 21.60816 | -158.38033 | 9774 ft | 269 kts | 210° |
| 2026-05-04 23:25 | 21.59099 | -158.38882 | 9479 ft | 275 kts | 204° |
| 2026-05-04 23:25 | 21.57324 | -158.39689 | 9153 ft | 278 kts | 203° |
| 2026-05-04 23:25 | 21.55535 | -158.40483 | 8835 ft | 279 kts | 202° |
| 2026-05-04 23:26 | 21.53740 | -158.41267 | 8518 ft | 277 kts | 202° |
| 2026-05-04 23:26 | 21.51980 | -158.42028 | 8222 ft | 276 kts | 202° |
| 2026-05-04 23:26 | 21.50171 | -158.42685 | 7921 ft | 273 kts | 188° |
| 2026-05-04 23:26 | 21.48308 | -158.42538 | 7677 ft | 268 kts | 161° |
| 2026-05-04 23:27 | 21.46722 | -158.41530 | 7506 ft | 267 kts | 135° |
| 2026-05-04 23:27 | 21.45511 | -158.40011 | 7369 ft | 269 kts | 128° |
| 2026-05-04 23:27 | 21.44341 | -158.38435 | 7191 ft | 269 kts | 128° |
| 2026-05-04 23:27 | 21.43187 | -158.36858 | 6983 ft | 268 kts | 128° |
| 2026-05-04 23:28 | 21.42043 | -158.35280 | 6796 ft | 267 kts | 127° |
| 2026-05-04 23:28 | 21.40909 | -158.33706 | 6598 ft | 265 kts | 127° |
| 2026-05-04 23:28 | 21.39816 | -158.32184 | 6406 ft | 260 kts | 127° |
| 2026-05-04 23:28 | 21.38725 | -158.30662 | 6203 ft | 255 kts | 127° |
| 2026-05-04 23:29 | 21.37657 | -158.29173 | 6003 ft | 249 kts | 128° |
| 2026-05-04 23:29 | 21.36537 | -158.27776 | 5800 ft | 245 kts | 130° |
| 2026-05-04 23:29 | 21.35415 | -158.26420 | 5572 ft | 241 kts | 131° |
| 2026-05-04 23:29 | 21.34327 | -158.25084 | 5385 ft | 235 kts | 126° |
| 2026-05-04 23:30 | 21.33465 | -158.23665 | 5311 ft | 219 kts | 121° |
| 2026-05-04 23:30 | 21.32765 | -158.22269 | 5119 ft | 208 kts | 105° |
| 2026-05-04 23:30 | 21.32621 | -158.20750 | 4821 ft | 204 kts | 91° |
| 2026-05-04 23:30 | 21.32595 | -158.19262 | 4519 ft | 200 kts | 91° |
| 2026-05-04 23:31 | 21.32576 | -158.17785 | 4239 ft | 196 kts | 90° |
| 2026-05-04 23:31 | 21.32562 | -158.16341 | 3996 ft | 191 kts | 89° |
| 2026-05-04 23:31 | 21.32549 | -158.15002 | 3787 ft | 168 kts | 90° |
| 2026-05-04 23:31 | 21.32539 | -158.13816 | 3573 ft | 154 kts | 89° |
| 2026-05-04 23:32 | 21.32527 | -158.12692 | 3366 ft | 148 kts | 88° |
| 2026-05-04 23:32 | 21.32524 | -158.11601 | 3165 ft | 145 kts | 89° |
| 2026-05-04 23:32 | 21.32522 | -158.10538 | 2962 ft | 143 kts | 88° |
| 2026-05-04 23:32 | 21.32523 | -158.09463 | 2763 ft | 145 kts | 87° |
| 2026-05-04 23:33 | 21.32515 | -158.08387 | 2553 ft | 144 kts | 88° |
| 2026-05-04 23:33 | 21.32508 | -158.07310 | 2404 ft | 145 kts | 86° |
| 2026-05-04 23:33 | 21.32522 | -158.06232 | 2181 ft | 146 kts | 87° |
| 2026-05-04 23:33 | 21.32539 | -158.05156 | 1959 ft | 143 kts | 86° |
| 2026-05-04 23:34 | 21.32530 | -158.04089 | 1763 ft | 144 kts | 85° |
| 2026-05-04 23:34 | 21.32520 | -158.03023 | 1583 ft | 141 kts | 84° |
| 2026-05-04 23:34 | 21.32524 | -158.01967 | 1416 ft | 143 kts | 84° |
| 2026-05-04 23:34 | 21.32526 | -158.00907 | 1212 ft | 141 kts | 85° |
| 2026-05-04 23:35 | 21.32526 | -157.99868 | 1071 ft | 141 kts | 85° |
| 2026-05-04 23:35 | 21.32525 | -157.98822 | 842 ft | 143 kts | 86° |
| 2026-05-04 23:35 | 21.32526 | -157.97744 | 690 ft | 147 kts | 89° |
| 2026-05-04 23:35 | 21.32517 | -157.96624 | 477 ft | 152 kts | 88° |
| 2026-05-04 23:36 | 21.32497 | -157.95471 | 330 ft | 151 kts | 85° |
| 2026-05-04 23:36 | 21.32508 | -157.94403 | 99 ft | 140 kts | 86° |
| 2026-05-04 23:36 | 21.32515 | -157.93400 | 34 ft | 125 kts | 83° |
| 2026-05-04 23:36 | 21.32526 | -157.92600 | 27 ft | 85 kts | 92° |
| 2026-05-04 23:37 | 21.32563 | -157.92262 | 27 ft | 27 kts | 61° |
| 2026-05-04 23:37 | 21.32654 | -157.92089 | 26 ft | 27 kts | 59° |
| 2026-05-04 23:37 | 21.32680 | -157.92040 | 26 ft | 0 kts | 62° |
| 2026-05-04 23:37 | 21.32683 | -157.92034 | 26 ft | 2 kts | 62° |
| 2026-05-04 23:38 | 21.32715 | -157.91983 | 26 ft | 12 kts | 41° |
| 2026-05-04 23:38 | 21.32789 | -157.92006 | 26 ft | 13 kts | 326° |
| 2026-05-04 23:38 | 21.32856 | -157.92021 | 26 ft | 0 kts | 358° |
| 2026-05-04 23:38 | 21.32868 | -157.92021 | 26 ft | 3 kts | 358° |
| 2026-05-04 23:39 | 21.32873 | -157.92021 | 26 ft | 0 kts | 358° |